sensor_id;sensor_type;location;lat;lon;timestamp;P1;durP1;ratioP1;P2;durP2;ratioP2
6280;SDS011;3173;48.204;11.612;2023-07-16T00:00:33;17.23;;;3.90;;
6280;SDS011;3173;48.204;11.612;2023-07-16T00:03:00;10.57;;;6.03;;
6280;SDS011;3173;48.204;11.612;2023-07-16T00:05:26;8.90;;;4.10;;
6280;SDS011;3173;48.204;11.612;2023-07-16T00:07:52;7.87;;;4.70;;
6280;SDS011;3173;48.204;11.612;2023-07-16T00:10:18;8.40;;;4.27;;
6280;SDS011;3173;48.204;11.612;2023-07-16T00:12:45;5.67;;;4.13;;
6280;SDS011;3173;48.204;11.612;2023-07-16T00:15:11;7.20;;;4.37;;
6280;SDS011;3173;48.204;11.612;2023-07-16T00:17:37;7.93;;;4.03;;
6280;SDS011;3173;48.204;11.612;2023-07-16T00:20:03;8.13;;;4.10;;
6280;SDS011;3173;48.204;11.612;2023-07-16T00:22:31;10.67;;;4.07;;
6280;SDS011;3173;48.204;11.612;2023-07-16T00:24:57;9.13;;;4.10;;
6280;SDS011;3173;48.204;11.612;2023-07-16T00:27:23;7.80;;;3.77;;
6280;SDS011;3173;48.204;11.612;2023-07-16T00:29:49;6.50;;;4.30;;
6280;SDS011;3173;48.204;11.612;2023-07-16T00:32:15;6.50;;;4.20;;
6280;SDS011;3173;48.204;11.612;2023-07-16T00:34:41;7.87;;;4.27;;
6280;SDS011;3173;48.204;11.612;2023-07-16T00:37:08;5.90;;;3.77;;
6280;SDS011;3173;48.204;11.612;2023-07-16T00:39:34;9.90;;;4.57;;
6280;SDS011;3173;48.204;11.612;2023-07-16T00:42:00;11.60;;;4.20;;
6280;SDS011;3173;48.204;11.612;2023-07-16T00:44:26;6.47;;;3.70;;
6280;SDS011;3173;48.204;11.612;2023-07-16T00:46:52;7.30;;;4.40;;
6280;SDS011;3173;48.204;11.612;2023-07-16T00:49:18;8.03;;;4.33;;
6280;SDS011;3173;48.204;11.612;2023-07-16T00:51:45;7.83;;;4.63;;
6280;SDS011;3173;48.204;11.612;2023-07-16T00:54:11;7.40;;;3.83;;
6280;SDS011;3173;48.204;11.612;2023-07-16T00:56:37;9.57;;;4.37;;
6280;SDS011;3173;48.204;11.612;2023-07-16T00:59:04;6.43;;;4.27;;
6280;SDS011;3173;48.204;11.612;2023-07-16T01:01:30;8.93;;;4.60;;
6280;SDS011;3173;48.204;11.612;2023-07-16T01:03:56;5.30;;;3.70;;
6280;SDS011;3173;48.204;11.612;2023-07-16T01:06:29;8.37;;;4.83;;
6280;SDS011;3173;48.204;11.612;2023-07-16T01:09:03;6.10;;;4.40;;
6280;SDS011;3173;48.204;11.612;2023-07-16T01:11:32;9.40;;;4.93;;
6280;SDS011;3173;48.204;11.612;2023-07-16T01:14:00;8.10;;;4.90;;
6280;SDS011;3173;48.204;11.612;2023-07-16T01:16:27;8.17;;;4.60;;
6280;SDS011;3173;48.204;11.612;2023-07-16T01:18:53;12.80;;;5.40;;
6280;SDS011;3173;48.204;11.612;2023-07-16T01:21:20;6.30;;;4.83;;
6280;SDS011;3173;48.204;11.612;2023-07-16T01:23:50;8.67;;;4.97;;
6280;SDS011;3173;48.204;11.612;2023-07-16T01:26:32;7.23;;;4.63;;
6280;SDS011;3173;48.204;11.612;2023-07-16T01:31:47;8.63;;;5.87;;
6280;SDS011;3173;48.204;11.612;2023-07-16T01:34:14;9.73;;;5.10;;
6280;SDS011;3173;48.204;11.612;2023-07-16T01:36:40;9.53;;;5.23;;
6280;SDS011;3173;48.204;11.612;2023-07-16T01:39:07;14.60;;;5.03;;
6280;SDS011;3173;48.204;11.612;2023-07-16T01:41:33;11.50;;;5.10;;
6280;SDS011;3173;48.204;11.612;2023-07-16T01:43:59;10.40;;;6.00;;
6280;SDS011;3173;48.204;11.612;2023-07-16T01:46:25;10.40;;;5.10;;
6280;SDS011;3173;48.204;11.612;2023-07-16T01:48:51;8.97;;;4.80;;
6280;SDS011;3173;48.204;11.612;2023-07-16T01:51:17;8.30;;;4.87;;
6280;SDS011;3173;48.204;11.612;2023-07-16T01:53:45;9.20;;;5.23;;
6280;SDS011;3173;48.204;11.612;2023-07-16T01:56:11;15.67;;;5.83;;
6280;SDS011;3173;48.204;11.612;2023-07-16T01:58:37;10.87;;;5.40;;
6280;SDS011;3173;48.204;11.612;2023-07-16T02:01:04;11.30;;;5.57;;
6280;SDS011;3173;48.204;11.612;2023-07-16T02:03:30;7.17;;;5.87;;
6280;SDS011;3173;48.204;11.612;2023-07-16T02:05:56;10.10;;;5.37;;
6280;SDS011;3173;48.204;11.612;2023-07-16T02:08:22;8.13;;;5.27;;
6280;SDS011;3173;48.204;11.612;2023-07-16T02:10:48;10.30;;;6.30;;
6280;SDS011;3173;48.204;11.612;2023-07-16T02:13:14;9.43;;;6.60;;
6280;SDS011;3173;48.204;11.612;2023-07-16T02:15:41;13.20;;;5.60;;
6280;SDS011;3173;48.204;11.612;2023-07-16T02:18:08;9.77;;;5.20;;
6280;SDS011;3173;48.204;11.612;2023-07-16T02:20:34;10.40;;;6.40;;
6280;SDS011;3173;48.204;11.612;2023-07-16T02:23:00;9.00;;;5.30;;
6280;SDS011;3173;48.204;11.612;2023-07-16T02:25:26;8.83;;;4.63;;
6280;SDS011;3173;48.204;11.612;2023-07-16T02:27:52;12.30;;;6.00;;
6280;SDS011;3173;48.204;11.612;2023-07-16T02:30:18;9.80;;;5.40;;
6280;SDS011;3173;48.204;11.612;2023-07-16T02:32:44;8.30;;;5.27;;
6280;SDS011;3173;48.204;11.612;2023-07-16T02:35:11;8.63;;;5.13;;
6280;SDS011;3173;48.204;11.612;2023-07-16T02:37:37;8.33;;;5.47;;
6280;SDS011;3173;48.204;11.612;2023-07-16T02:40:03;9.40;;;5.70;;
6280;SDS011;3173;48.204;11.612;2023-07-16T02:42:29;11.00;;;5.20;;
6280;SDS011;3173;48.204;11.612;2023-07-16T02:44:56;11.60;;;5.93;;
6280;SDS011;3173;48.204;11.612;2023-07-16T02:47:22;11.53;;;5.93;;
6280;SDS011;3173;48.204;11.612;2023-07-16T02:49:50;7.50;;;5.30;;
6280;SDS011;3173;48.204;11.612;2023-07-16T02:52:17;10.57;;;5.90;;
6280;SDS011;3173;48.204;11.612;2023-07-16T02:54:43;10.23;;;6.00;;
6280;SDS011;3173;48.204;11.612;2023-07-16T02:57:09;7.40;;;5.13;;
6280;SDS011;3173;48.204;11.612;2023-07-16T02:59:35;9.27;;;5.73;;
6280;SDS011;3173;48.204;11.612;2023-07-16T03:02:01;11.80;;;6.00;;
6280;SDS011;3173;48.204;11.612;2023-07-16T03:04:27;9.97;;;5.70;;
6280;SDS011;3173;48.204;11.612;2023-07-16T03:06:53;10.57;;;6.03;;
6280;SDS011;3173;48.204;11.612;2023-07-16T03:09:19;11.57;;;5.73;;
6280;SDS011;3173;48.204;11.612;2023-07-16T03:11:45;12.73;;;5.00;;
6280;SDS011;3173;48.204;11.612;2023-07-16T03:14:12;8.13;;;4.77;;
6280;SDS011;3173;48.204;11.612;2023-07-16T03:16:38;7.13;;;5.33;;
6280;SDS011;3173;48.204;11.612;2023-07-16T03:19:04;12.50;;;5.67;;
6280;SDS011;3173;48.204;11.612;2023-07-16T03:21:31;8.57;;;4.83;;
6280;SDS011;3173;48.204;11.612;2023-07-16T03:23:57;7.17;;;5.13;;
6280;SDS011;3173;48.204;11.612;2023-07-16T03:26:23;9.90;;;6.23;;
6280;SDS011;3173;48.204;11.612;2023-07-16T03:28:49;19.40;;;6.00;;
6280;SDS011;3173;48.204;11.612;2023-07-16T03:31:15;7.40;;;4.43;;
6280;SDS011;3173;48.204;11.612;2023-07-16T03:33:41;7.53;;;4.50;;
6280;SDS011;3173;48.204;11.612;2023-07-16T03:36:08;6.47;;;3.40;;
6280;SDS011;3173;48.204;11.612;2023-07-16T03:38:34;6.87;;;3.07;;
6280;SDS011;3173;48.204;11.612;2023-07-16T03:41:01;6.93;;;3.20;;
6280;SDS011;3173;48.204;11.612;2023-07-16T03:43:27;8.80;;;3.00;;
6280;SDS011;3173;48.204;11.612;2023-07-16T03:45:54;5.13;;;2.83;;
6280;SDS011;3173;48.204;11.612;2023-07-16T03:48:20;5.50;;;2.53;;
6280;SDS011;3173;48.204;11.612;2023-07-16T03:50:46;4.00;;;2.47;;
6280;SDS011;3173;48.204;11.612;2023-07-16T03:53:12;6.80;;;3.17;;
6280;SDS011;3173;48.204;11.612;2023-07-16T03:55:38;4.33;;;1.93;;
6280;SDS011;3173;48.204;11.612;2023-07-16T03:58:04;3.40;;;2.07;;
6280;SDS011;3173;48.204;11.612;2023-07-16T04:00:30;3.33;;;2.10;;
6280;SDS011;3173;48.204;11.612;2023-07-16T04:02:57;5.30;;;2.80;;
6280;SDS011;3173;48.204;11.612;2023-07-16T04:05:24;3.50;;;1.70;;
6280;SDS011;3173;48.204;11.612;2023-07-16T04:07:50;3.60;;;2.10;;
6280;SDS011;3173;48.204;11.612;2023-07-16T04:10:17;2.97;;;1.70;;
6280;SDS011;3173;48.204;11.612;2023-07-16T04:12:43;3.63;;;1.90;;
6280;SDS011;3173;48.204;11.612;2023-07-16T04:15:09;2.20;;;1.37;;
6280;SDS011;3173;48.204;11.612;2023-07-16T04:17:35;5.83;;;1.93;;
6280;SDS011;3173;48.204;11.612;2023-07-16T04:20:02;2.73;;;1.20;;
6280;SDS011;3173;48.204;11.612;2023-07-16T04:22:28;4.83;;;1.40;;
6280;SDS011;3173;48.204;11.612;2023-07-16T04:24:54;2.67;;;1.23;;
6280;SDS011;3173;48.204;11.612;2023-07-16T04:27:21;2.63;;;1.40;;
6280;SDS011;3173;48.204;11.612;2023-07-16T04:29:47;6.80;;;1.40;;
6280;SDS011;3173;48.204;11.612;2023-07-16T04:32:13;7.00;;;2.63;;
6280;SDS011;3173;48.204;11.612;2023-07-16T04:34:39;8.03;;;2.10;;
6280;SDS011;3173;48.204;11.612;2023-07-16T04:37:05;3.27;;;1.90;;
6280;SDS011;3173;48.204;11.612;2023-07-16T04:39:31;2.77;;;1.50;;
6280;SDS011;3173;48.204;11.612;2023-07-16T04:41:57;5.13;;;1.90;;
6280;SDS011;3173;48.204;11.612;2023-07-16T04:44:24;4.40;;;1.57;;
6280;SDS011;3173;48.204;11.612;2023-07-16T04:46:50;2.40;;;1.60;;
6280;SDS011;3173;48.204;11.612;2023-07-16T04:49:16;6.93;;;2.07;;
6280;SDS011;3173;48.204;11.612;2023-07-16T04:51:42;3.20;;;1.80;;
6280;SDS011;3173;48.204;11.612;2023-07-16T04:54:08;6.33;;;1.87;;
6280;SDS011;3173;48.204;11.612;2023-07-16T04:56:34;5.80;;;2.37;;
6280;SDS011;3173;48.204;11.612;2023-07-16T04:59:00;3.70;;;1.57;;
6280;SDS011;3173;48.204;11.612;2023-07-16T05:01:26;2.70;;;1.87;;
6280;SDS011;3173;48.204;11.612;2023-07-16T05:03:53;2.80;;;2.03;;
6280;SDS011;3173;48.204;11.612;2023-07-16T05:06:19;5.30;;;2.13;;
6280;SDS011;3173;48.204;11.612;2023-07-16T05:08:45;2.60;;;1.70;;
6280;SDS011;3173;48.204;11.612;2023-07-16T05:11:12;5.43;;;2.10;;
6280;SDS011;3173;48.204;11.612;2023-07-16T05:13:38;5.03;;;2.10;;
6280;SDS011;3173;48.204;11.612;2023-07-16T05:16:04;5.67;;;2.47;;
6280;SDS011;3173;48.204;11.612;2023-07-16T05:18:30;4.67;;;2.40;;
6280;SDS011;3173;48.204;11.612;2023-07-16T05:20:56;5.40;;;2.17;;
6280;SDS011;3173;48.204;11.612;2023-07-16T05:23:22;4.13;;;2.67;;
6280;SDS011;3173;48.204;11.612;2023-07-16T05:25:49;3.60;;;2.30;;
6280;SDS011;3173;48.204;11.612;2023-07-16T05:28:18;4.23;;;2.30;;
6280;SDS011;3173;48.204;11.612;2023-07-16T05:30:45;3.90;;;2.60;;
6280;SDS011;3173;48.204;11.612;2023-07-16T05:33:11;4.43;;;2.40;;
6280;SDS011;3173;48.204;11.612;2023-07-16T05:35:38;5.50;;;2.00;;
6280;SDS011;3173;48.204;11.612;2023-07-16T05:38:04;3.87;;;2.20;;
6280;SDS011;3173;48.204;11.612;2023-07-16T05:40:30;4.03;;;2.67;;
6280;SDS011;3173;48.204;11.612;2023-07-16T05:42:56;6.07;;;2.90;;
6280;SDS011;3173;48.204;11.612;2023-07-16T05:45:23;6.40;;;2.33;;
6280;SDS011;3173;48.204;11.612;2023-07-16T05:47:49;2.67;;;2.30;;
6280;SDS011;3173;48.204;11.612;2023-07-16T05:50:15;5.07;;;2.43;;
6280;SDS011;3173;48.204;11.612;2023-07-16T05:52:41;5.33;;;2.60;;
6280;SDS011;3173;48.204;11.612;2023-07-16T05:55:07;5.63;;;2.27;;
6280;SDS011;3173;48.204;11.612;2023-07-16T05:57:33;3.60;;;2.50;;
6280;SDS011;3173;48.204;11.612;2023-07-16T06:00:00;4.27;;;2.57;;
6280;SDS011;3173;48.204;11.612;2023-07-16T06:02:26;3.53;;;2.40;;
6280;SDS011;3173;48.204;11.612;2023-07-16T06:04:52;4.67;;;2.30;;
6280;SDS011;3173;48.204;11.612;2023-07-16T06:07:18;4.13;;;2.70;;
6280;SDS011;3173;48.204;11.612;2023-07-16T06:09:44;4.13;;;2.20;;
6280;SDS011;3173;48.204;11.612;2023-07-16T06:12:10;5.23;;;2.73;;
6280;SDS011;3173;48.204;11.612;2023-07-16T06:14:36;5.10;;;2.00;;
6280;SDS011;3173;48.204;11.612;2023-07-16T06:17:02;4.40;;;2.37;;
6280;SDS011;3173;48.204;11.612;2023-07-16T06:19:29;4.47;;;2.40;;
6280;SDS011;3173;48.204;11.612;2023-07-16T06:21:55;6.00;;;2.70;;
6280;SDS011;3173;48.204;11.612;2023-07-16T06:24:21;4.10;;;2.20;;
6280;SDS011;3173;48.204;11.612;2023-07-16T06:26:47;4.00;;;2.30;;
6280;SDS011;3173;48.204;11.612;2023-07-16T06:29:13;7.17;;;2.20;;
6280;SDS011;3173;48.204;11.612;2023-07-16T06:31:42;7.00;;;2.60;;
6280;SDS011;3173;48.204;11.612;2023-07-16T06:34:08;3.20;;;2.00;;
6280;SDS011;3173;48.204;11.612;2023-07-16T06:36:35;3.57;;;2.60;;
6280;SDS011;3173;48.204;11.612;2023-07-16T06:39:01;5.27;;;2.67;;
6280;SDS011;3173;48.204;11.612;2023-07-16T06:41:29;8.10;;;2.07;;
6280;SDS011;3173;48.204;11.612;2023-07-16T06:43:57;4.40;;;2.70;;
6280;SDS011;3173;48.204;11.612;2023-07-16T06:46:23;3.77;;;2.30;;
6280;SDS011;3173;48.204;11.612;2023-07-16T06:48:49;7.23;;;2.67;;
6280;SDS011;3173;48.204;11.612;2023-07-16T06:51:15;5.27;;;1.90;;
6280;SDS011;3173;48.204;11.612;2023-07-16T06:53:41;8.87;;;3.07;;
6280;SDS011;3173;48.204;11.612;2023-07-16T06:56:07;6.73;;;2.30;;
6280;SDS011;3173;48.204;11.612;2023-07-16T06:58:34;8.10;;;2.37;;
6280;SDS011;3173;48.204;11.612;2023-07-16T07:01:00;5.00;;;2.90;;
6280;SDS011;3173;48.204;11.612;2023-07-16T07:03:26;3.53;;;2.07;;
6280;SDS011;3173;48.204;11.612;2023-07-16T07:05:53;3.80;;;2.40;;
6280;SDS011;3173;48.204;11.612;2023-07-16T07:08:19;3.53;;;2.20;;
6280;SDS011;3173;48.204;11.612;2023-07-16T07:10:46;3.60;;;2.50;;
6280;SDS011;3173;48.204;11.612;2023-07-16T07:13:12;3.33;;;2.23;;
6280;SDS011;3173;48.204;11.612;2023-07-16T07:15:38;4.83;;;2.50;;
6280;SDS011;3173;48.204;11.612;2023-07-16T07:18:05;4.93;;;2.27;;
6280;SDS011;3173;48.204;11.612;2023-07-16T07:20:31;3.00;;;2.20;;
6280;SDS011;3173;48.204;11.612;2023-07-16T07:22:57;3.90;;;2.40;;
6280;SDS011;3173;48.204;11.612;2023-07-16T07:25:27;4.17;;;2.20;;
6280;SDS011;3173;48.204;11.612;2023-07-16T07:27:53;4.47;;;2.90;;
6280;SDS011;3173;48.204;11.612;2023-07-16T07:30:19;3.53;;;2.27;;
6280;SDS011;3173;48.204;11.612;2023-07-16T07:32:45;2.80;;;1.93;;
6280;SDS011;3173;48.204;11.612;2023-07-16T07:35:12;7.03;;;1.73;;
6280;SDS011;3173;48.204;11.612;2023-07-16T07:37:38;4.17;;;2.47;;
6280;SDS011;3173;48.204;11.612;2023-07-16T07:40:04;4.37;;;2.47;;
6280;SDS011;3173;48.204;11.612;2023-07-16T07:42:30;3.67;;;2.07;;
6280;SDS011;3173;48.204;11.612;2023-07-16T07:44:57;3.63;;;1.53;;
6280;SDS011;3173;48.204;11.612;2023-07-16T07:47:23;3.27;;;1.57;;
6280;SDS011;3173;48.204;11.612;2023-07-16T07:49:50;3.47;;;1.70;;
6280;SDS011;3173;48.204;11.612;2023-07-16T07:52:16;2.53;;;1.30;;
6280;SDS011;3173;48.204;11.612;2023-07-16T07:54:42;2.23;;;1.10;;
6280;SDS011;3173;48.204;11.612;2023-07-16T07:57:08;2.00;;;1.20;;
6280;SDS011;3173;48.204;11.612;2023-07-16T07:59:34;2.03;;;1.20;;
6280;SDS011;3173;48.204;11.612;2023-07-16T08:02:01;2.50;;;1.33;;
6280;SDS011;3173;48.204;11.612;2023-07-16T08:04:27;4.40;;;1.43;;
6280;SDS011;3173;48.204;11.612;2023-07-16T08:06:53;1.60;;;1.10;;
6280;SDS011;3173;48.204;11.612;2023-07-16T08:09:20;2.87;;;1.40;;
6280;SDS011;3173;48.204;11.612;2023-07-16T08:11:46;1.90;;;1.20;;
6280;SDS011;3173;48.204;11.612;2023-07-16T08:14:12;2.60;;;1.23;;
6280;SDS011;3173;48.204;11.612;2023-07-16T08:16:38;4.03;;;1.90;;
6280;SDS011;3173;48.204;11.612;2023-07-16T08:19:04;3.30;;;1.40;;
6280;SDS011;3173;48.204;11.612;2023-07-16T08:21:32;1.83;;;1.43;;
6280;SDS011;3173;48.204;11.612;2023-07-16T08:23:58;2.30;;;1.53;;
6280;SDS011;3173;48.204;11.612;2023-07-16T08:26:24;2.70;;;1.40;;
6280;SDS011;3173;48.204;11.612;2023-07-16T08:28:50;3.63;;;1.40;;
6280;SDS011;3173;48.204;11.612;2023-07-16T08:31:16;2.27;;;1.50;;
6280;SDS011;3173;48.204;11.612;2023-07-16T08:33:42;1.57;;;1.10;;
6280;SDS011;3173;48.204;11.612;2023-07-16T08:36:09;3.07;;;1.50;;
6280;SDS011;3173;48.204;11.612;2023-07-16T08:38:35;3.27;;;1.37;;
6280;SDS011;3173;48.204;11.612;2023-07-16T08:41:01;4.33;;;1.50;;
6280;SDS011;3173;48.204;11.612;2023-07-16T08:43:30;2.20;;;1.30;;
6280;SDS011;3173;48.204;11.612;2023-07-16T08:45:58;2.17;;;1.20;;
6280;SDS011;3173;48.204;11.612;2023-07-16T08:48:26;3.73;;;1.70;;
6280;SDS011;3173;48.204;11.612;2023-07-16T08:50:53;4.20;;;1.20;;
6280;SDS011;3173;48.204;11.612;2023-07-16T08:53:21;3.00;;;1.40;;
6280;SDS011;3173;48.204;11.612;2023-07-16T08:55:48;1.70;;;1.00;;
6280;SDS011;3173;48.204;11.612;2023-07-16T08:58:14;1.70;;;0.90;;
6280;SDS011;3173;48.204;11.612;2023-07-16T09:00:43;1.80;;;1.00;;
6280;SDS011;3173;48.204;11.612;2023-07-16T09:03:11;1.67;;;1.13;;
6280;SDS011;3173;48.204;11.612;2023-07-16T09:05:38;1.90;;;0.97;;
6280;SDS011;3173;48.204;11.612;2023-07-16T09:08:06;1.97;;;1.03;;
6280;SDS011;3173;48.204;11.612;2023-07-16T09:10:32;2.50;;;1.10;;
6280;SDS011;3173;48.204;11.612;2023-07-16T09:12:58;3.47;;;1.20;;
6280;SDS011;3173;48.204;11.612;2023-07-16T09:15:25;3.50;;;1.20;;
6280;SDS011;3173;48.204;11.612;2023-07-16T09:17:53;2.20;;;1.10;;
6280;SDS011;3173;48.204;11.612;2023-07-16T09:20:19;1.70;;;1.10;;
6280;SDS011;3173;48.204;11.612;2023-07-16T09:22:47;2.63;;;1.43;;
6280;SDS011;3173;48.204;11.612;2023-07-16T09:25:13;2.00;;;1.23;;
6280;SDS011;3173;48.204;11.612;2023-07-16T09:27:39;2.27;;;1.17;;
6280;SDS011;3173;48.204;11.612;2023-07-16T09:30:06;3.27;;;1.47;;
6280;SDS011;3173;48.204;11.612;2023-07-16T09:32:36;3.27;;;1.20;;
6280;SDS011;3173;48.204;11.612;2023-07-16T09:35:11;3.03;;;1.23;;
6280;SDS011;3173;48.204;11.612;2023-07-16T09:37:37;1.90;;;1.40;;
6280;SDS011;3173;48.204;11.612;2023-07-16T09:40:07;1.87;;;0.97;;
6280;SDS011;3173;48.204;11.612;2023-07-16T09:42:38;1.50;;;1.00;;
6280;SDS011;3173;48.204;11.612;2023-07-16T09:45:17;2.97;;;1.30;;
6280;SDS011;3173;48.204;11.612;2023-07-16T09:47:44;2.67;;;1.30;;
6280;SDS011;3173;48.204;11.612;2023-07-16T09:50:10;3.30;;;1.00;;
6280;SDS011;3173;48.204;11.612;2023-07-16T09:52:36;1.73;;;0.90;;
6280;SDS011;3173;48.204;11.612;2023-07-16T09:55:05;1.70;;;0.90;;
6280;SDS011;3173;48.204;11.612;2023-07-16T09:57:34;1.47;;;1.03;;
6280;SDS011;3173;48.204;11.612;2023-07-16T10:00:02;2.50;;;1.00;;
6280;SDS011;3173;48.204;11.612;2023-07-16T10:02:33;2.33;;;1.10;;
6280;SDS011;3173;48.204;11.612;2023-07-16T10:05:11;2.23;;;1.50;;
6280;SDS011;3173;48.204;11.612;2023-07-16T10:07:37;2.03;;;1.10;;
6280;SDS011;3173;48.204;11.612;2023-07-16T10:10:07;2.20;;;1.17;;
6280;SDS011;3173;48.204;11.612;2023-07-16T10:12:34;2.23;;;1.10;;
6280;SDS011;3173;48.204;11.612;2023-07-16T10:15:00;1.83;;;1.03;;
6280;SDS011;3173;48.204;11.612;2023-07-16T10:17:30;1.70;;;1.20;;
6280;SDS011;3173;48.204;11.612;2023-07-16T10:19:57;3.33;;;1.17;;
6280;SDS011;3173;48.204;11.612;2023-07-16T10:25:03;2.80;;;0.93;;
6280;SDS011;3173;48.204;11.612;2023-07-16T10:27:32;3.00;;;1.27;;
6280;SDS011;3173;48.204;11.612;2023-07-16T10:30:02;4.20;;;1.10;;
6280;SDS011;3173;48.204;11.612;2023-07-16T10:32:30;2.20;;;1.07;;
6280;SDS011;3173;48.204;11.612;2023-07-16T10:34:56;2.77;;;1.07;;
6280;SDS011;3173;48.204;11.612;2023-07-16T10:37:23;3.63;;;0.97;;
6280;SDS011;3173;48.204;11.612;2023-07-16T10:39:49;1.90;;;0.90;;
6280;SDS011;3173;48.204;11.612;2023-07-16T10:42:16;1.67;;;1.30;;
6280;SDS011;3173;48.204;11.612;2023-07-16T10:44:43;3.03;;;1.20;;
6280;SDS011;3173;48.204;11.612;2023-07-16T10:47:09;1.40;;;1.10;;
6280;SDS011;3173;48.204;11.612;2023-07-16T10:49:36;1.60;;;0.90;;
6280;SDS011;3173;48.204;11.612;2023-07-16T10:52:02;1.67;;;1.07;;
6280;SDS011;3173;48.204;11.612;2023-07-16T10:54:28;2.57;;;1.20;;
6280;SDS011;3173;48.204;11.612;2023-07-16T10:56:54;2.60;;;1.13;;
6280;SDS011;3173;48.204;11.612;2023-07-16T10:59:20;2.78;;;1.30;;
6280;SDS011;3173;48.204;11.612;2023-07-16T11:01:47;1.87;;;1.00;;
6280;SDS011;3173;48.204;11.612;2023-07-16T11:04:13;2.70;;;1.30;;
6280;SDS011;3173;48.204;11.612;2023-07-16T11:06:39;2.10;;;1.17;;
6280;SDS011;3173;48.204;11.612;2023-07-16T11:09:06;2.10;;;1.23;;
6280;SDS011;3173;48.204;11.612;2023-07-16T11:11:33;1.90;;;1.17;;
6280;SDS011;3173;48.204;11.612;2023-07-16T11:13:59;2.47;;;1.30;;
6280;SDS011;3173;48.204;11.612;2023-07-16T11:16:25;2.13;;;1.00;;
6280;SDS011;3173;48.204;11.612;2023-07-16T11:18:51;2.70;;;1.10;;
6280;SDS011;3173;48.204;11.612;2023-07-16T11:21:20;1.60;;;1.07;;
6280;SDS011;3173;48.204;11.612;2023-07-16T11:23:46;2.10;;;1.30;;
6280;SDS011;3173;48.204;11.612;2023-07-16T11:26:14;4.67;;;1.30;;
6280;SDS011;3173;48.204;11.612;2023-07-16T11:28:41;1.73;;;1.20;;
6280;SDS011;3173;48.204;11.612;2023-07-16T11:31:11;1.43;;;1.20;;
6280;SDS011;3173;48.204;11.612;2023-07-16T11:33:38;2.43;;;1.40;;
6280;SDS011;3173;48.204;11.612;2023-07-16T11:36:04;1.67;;;1.00;;
6280;SDS011;3173;48.204;11.612;2023-07-16T11:38:30;2.33;;;1.17;;
6280;SDS011;3173;48.204;11.612;2023-07-16T11:41:01;2.00;;;1.23;;
6280;SDS011;3173;48.204;11.612;2023-07-16T11:43:28;5.73;;;1.40;;
6280;SDS011;3173;48.204;11.612;2023-07-16T11:45:54;2.00;;;1.20;;
6280;SDS011;3173;48.204;11.612;2023-07-16T11:48:20;2.30;;;1.40;;
6280;SDS011;3173;48.204;11.612;2023-07-16T11:50:46;2.20;;;1.13;;
6280;SDS011;3173;48.204;11.612;2023-07-16T11:53:12;1.97;;;1.20;;
6280;SDS011;3173;48.204;11.612;2023-07-16T11:55:38;1.90;;;1.23;;
6280;SDS011;3173;48.204;11.612;2023-07-16T11:58:04;3.00;;;1.67;;
6280;SDS011;3173;48.204;11.612;2023-07-16T12:00:30;1.70;;;1.20;;
6280;SDS011;3173;48.204;11.612;2023-07-16T12:02:56;1.87;;;1.50;;
6280;SDS011;3173;48.204;11.612;2023-07-16T12:05:22;1.97;;;1.23;;
6280;SDS011;3173;48.204;11.612;2023-07-16T12:07:49;2.47;;;1.40;;
6280;SDS011;3173;48.204;11.612;2023-07-16T12:10:15;2.10;;;1.47;;
6280;SDS011;3173;48.204;11.612;2023-07-16T12:12:41;3.43;;;1.50;;
6280;SDS011;3173;48.204;11.612;2023-07-16T12:15:08;2.37;;;1.50;;
6280;SDS011;3173;48.204;11.612;2023-07-16T12:17:34;1.33;;;1.07;;
6280;SDS011;3173;48.204;11.612;2023-07-16T12:20:01;1.83;;;1.33;;
6280;SDS011;3173;48.204;11.612;2023-07-16T12:22:28;1.80;;;1.07;;
6280;SDS011;3173;48.204;11.612;2023-07-16T12:24:54;1.23;;;1.00;;
6280;SDS011;3173;48.204;11.612;2023-07-16T12:27:20;2.43;;;1.20;;
6280;SDS011;3173;48.204;11.612;2023-07-16T12:29:46;3.80;;;1.07;;
6280;SDS011;3173;48.204;11.612;2023-07-16T12:32:13;2.77;;;1.20;;
6280;SDS011;3173;48.204;11.612;2023-07-16T12:34:39;2.90;;;1.50;;
6280;SDS011;3173;48.204;11.612;2023-07-16T12:37:05;3.60;;;1.30;;
6280;SDS011;3173;48.204;11.612;2023-07-16T12:39:34;2.77;;;1.60;;
6280;SDS011;3173;48.204;11.612;2023-07-16T12:42:00;10.03;;;1.60;;
6280;SDS011;3173;48.204;11.612;2023-07-16T12:44:26;2.70;;;1.57;;
6280;SDS011;3173;48.204;11.612;2023-07-16T12:46:52;2.20;;;1.10;;
6280;SDS011;3173;48.204;11.612;2023-07-16T12:49:19;3.50;;;1.23;;
6280;SDS011;3173;48.204;11.612;2023-07-16T12:51:45;2.80;;;1.40;;
6280;SDS011;3173;48.204;11.612;2023-07-16T12:54:11;1.80;;;1.20;;
6280;SDS011;3173;48.204;11.612;2023-07-16T12:56:37;2.30;;;1.53;;
6280;SDS011;3173;48.204;11.612;2023-07-16T12:59:04;2.60;;;1.53;;
6280;SDS011;3173;48.204;11.612;2023-07-16T13:01:30;1.80;;;1.10;;
6280;SDS011;3173;48.204;11.612;2023-07-16T13:03:56;2.83;;;1.53;;
6280;SDS011;3173;48.204;11.612;2023-07-16T13:06:22;2.33;;;1.50;;
6280;SDS011;3173;48.204;11.612;2023-07-16T13:08:48;2.50;;;1.53;;
6280;SDS011;3173;48.204;11.612;2023-07-16T13:11:14;2.00;;;1.17;;
6280;SDS011;3173;48.204;11.612;2023-07-16T13:13:40;4.07;;;1.50;;
6280;SDS011;3173;48.204;11.612;2023-07-16T13:16:07;2.30;;;1.27;;
6280;SDS011;3173;48.204;11.612;2023-07-16T13:18:33;2.43;;;1.40;;
6280;SDS011;3173;48.204;11.612;2023-07-16T13:20:59;3.40;;;1.70;;
6280;SDS011;3173;48.204;11.612;2023-07-16T13:23:25;5.20;;;1.73;;
6280;SDS011;3173;48.204;11.612;2023-07-16T13:25:51;4.47;;;2.00;;
6280;SDS011;3173;48.204;11.612;2023-07-16T13:28:18;2.93;;;1.53;;
6280;SDS011;3173;48.204;11.612;2023-07-16T13:30:44;2.43;;;1.70;;
6280;SDS011;3173;48.204;11.612;2023-07-16T13:33:10;2.57;;;1.40;;
6280;SDS011;3173;48.204;11.612;2023-07-16T13:35:36;2.30;;;1.47;;
6280;SDS011;3173;48.204;11.612;2023-07-16T13:38:03;1.77;;;1.30;;
6280;SDS011;3173;48.204;11.612;2023-07-16T13:40:29;4.17;;;1.47;;
6280;SDS011;3173;48.204;11.612;2023-07-16T13:42:55;2.10;;;1.37;;
6280;SDS011;3173;48.204;11.612;2023-07-16T13:45:21;3.77;;;2.00;;
6280;SDS011;3173;48.204;11.612;2023-07-16T13:47:48;3.10;;;1.53;;
6280;SDS011;3173;48.204;11.612;2023-07-16T13:50:17;2.80;;;1.30;;
6280;SDS011;3173;48.204;11.612;2023-07-16T13:52:44;2.70;;;1.47;;
6280;SDS011;3173;48.204;11.612;2023-07-16T13:55:10;1.87;;;1.67;;
6280;SDS011;3173;48.204;11.612;2023-07-16T13:57:36;2.80;;;2.13;;
6280;SDS011;3173;48.204;11.612;2023-07-16T14:00:02;2.37;;;1.40;;
6280;SDS011;3173;48.204;11.612;2023-07-16T14:02:30;4.50;;;1.20;;
6280;SDS011;3173;48.204;11.612;2023-07-16T14:04:56;1.77;;;1.20;;
6280;SDS011;3173;48.204;11.612;2023-07-16T14:07:22;2.50;;;1.50;;
6280;SDS011;3173;48.204;11.612;2023-07-16T14:09:48;1.90;;;1.57;;
6280;SDS011;3173;48.204;11.612;2023-07-16T14:12:15;2.70;;;1.60;;
6280;SDS011;3173;48.204;11.612;2023-07-16T14:14:41;1.50;;;1.40;;
6280;SDS011;3173;48.204;11.612;2023-07-16T14:17:07;2.30;;;1.27;;
6280;SDS011;3173;48.204;11.612;2023-07-16T14:19:33;6.93;;;1.53;;
6280;SDS011;3173;48.204;11.612;2023-07-16T14:22:00;2.73;;;1.23;;
6280;SDS011;3173;48.204;11.612;2023-07-16T14:24:26;4.07;;;1.67;;
6280;SDS011;3173;48.204;11.612;2023-07-16T14:26:52;2.80;;;1.63;;
6280;SDS011;3173;48.204;11.612;2023-07-16T14:29:18;2.97;;;1.37;;
6280;SDS011;3173;48.204;11.612;2023-07-16T14:31:44;4.00;;;1.50;;
6280;SDS011;3173;48.204;11.612;2023-07-16T14:34:10;2.37;;;1.60;;
6280;SDS011;3173;48.204;11.612;2023-07-16T14:36:36;3.03;;;1.60;;
6280;SDS011;3173;48.204;11.612;2023-07-16T14:39:02;2.67;;;1.63;;
6280;SDS011;3173;48.204;11.612;2023-07-16T14:41:28;2.47;;;1.70;;
6280;SDS011;3173;48.204;11.612;2023-07-16T14:43:55;2.93;;;1.87;;
6280;SDS011;3173;48.204;11.612;2023-07-16T14:46:21;3.07;;;1.80;;
6280;SDS011;3173;48.204;11.612;2023-07-16T14:48:47;2.53;;;1.57;;
6280;SDS011;3173;48.204;11.612;2023-07-16T14:51:13;3.60;;;1.40;;
6280;SDS011;3173;48.204;11.612;2023-07-16T14:53:39;2.80;;;1.77;;
6280;SDS011;3173;48.204;11.612;2023-07-16T14:56:06;3.10;;;1.40;;
6280;SDS011;3173;48.204;11.612;2023-07-16T14:58:32;3.40;;;1.73;;
6280;SDS011;3173;48.204;11.612;2023-07-16T15:01:02;4.23;;;1.67;;